createdAt,value
2022-08-05T00:00:24.164Z,24.61
2022-08-05T00:02:55.808Z,24.69
2022-08-05T00:06:02.866Z,24.38
2022-08-05T00:08:32.761Z,24.35
2022-08-05T00:11:01.730Z,24.19
2022-08-05T00:13:39.463Z,24.35
2022-08-05T00:16:12.375Z,24.44
2022-08-05T00:18:44.224Z,24.44
2022-08-05T00:21:14.472Z,24.19
2022-08-05T00:23:45.901Z,24.21
2022-08-05T00:26:16.648Z,24.03
2022-08-05T00:28:45.792Z,23.96
2022-08-05T00:31:14.577Z,23.98
2022-08-05T00:34:56.277Z,23.91
2022-08-05T00:37:11.701Z,23.92
2022-08-05T00:39:20.615Z,23.79
2022-08-05T00:41:55.774Z,23.70
2022-08-05T00:44:30.841Z,24.09
2022-08-05T00:47:01.862Z,24.18
2022-08-05T00:49:44.359Z,24.06
2022-08-05T00:52:28.186Z,24.03
2022-08-05T00:54:57.247Z,24.15
2022-08-05T00:57:38.135Z,23.99
2022-08-05T01:00:15.256Z,24.07
2022-08-05T01:02:45.277Z,23.82
2022-08-05T01:05:14.779Z,23.65
2022-08-05T01:08:30.337Z,23.61
2022-08-05T01:10:36.654Z,23.75
2022-08-05T01:13:13.284Z,23.73
2022-08-05T01:15:58.194Z,23.56
2022-08-05T01:18:35.192Z,23.55
2022-08-05T01:21:12.423Z,23.61
2022-08-05T01:24:14.324Z,23.49
2022-08-05T01:27:00.723Z,23.46
2022-08-05T01:29:54.548Z,23.27
2022-08-05T01:32:27.706Z,23.17
2022-08-05T01:35:00.565Z,23.26
2022-08-05T01:37:36.583Z,23.34
2022-08-05T01:40:13.560Z,23.07
2022-08-05T01:42:47.011Z,22.95
2022-08-05T01:45:18.020Z,23.14
2022-08-05T01:47:54.597Z,23.06
2022-08-05T01:50:29.686Z,22.92
2022-08-05T01:53:02.521Z,22.84
2022-08-05T01:55:36.128Z,22.70
2022-08-05T01:58:29.885Z,22.64
2022-08-05T02:00:59.321Z,22.57
2022-08-05T02:03:34.284Z,22.50
2022-08-05T02:06:23.978Z,22.76
2022-08-05T02:08:55.189Z,22.69
2022-08-05T02:11:32.836Z,22.57
2022-08-05T02:14:06.365Z,22.59
2022-08-05T02:16:44.055Z,22.54
2022-08-05T02:19:19.894Z,22.38
2022-08-05T02:21:55.431Z,22.42
2022-08-05T02:24:28.772Z,22.52
2022-08-05T02:27:10.177Z,22.43
2022-08-05T02:29:58.388Z,22.66
2022-08-05T02:32:31.840Z,22.66
2022-08-05T02:35:13.477Z,22.70
2022-08-05T02:37:47.896Z,22.65
2022-08-05T02:40:24.339Z,22.55
2022-08-05T02:42:55.192Z,22.51
2022-08-05T02:45:25.472Z,22.40
2022-08-05T02:48:07.033Z,22.21
2022-08-05T02:50:43.852Z,22.31
2022-08-05T02:53:19.075Z,22.27
2022-08-05T02:55:54.326Z,22.21
2022-08-05T02:58:30.284Z,22.21
2022-08-05T03:01:02.531Z,22.14
2022-08-05T03:04:03.412Z,22.14
2022-08-05T03:06:56.563Z,22.15
2022-08-05T03:09:17.968Z,22.05
2022-08-05T03:12:05.576Z,22.02
2022-08-05T03:14:33.721Z,22.02
2022-08-05T03:17:05.057Z,22.03
2022-08-05T03:19:38.222Z,21.93
2022-08-05T03:22:16.740Z,21.84
2022-08-05T03:24:51.059Z,21.90
2022-08-05T03:27:20.774Z,21.82
2022-08-05T03:30:07.185Z,21.95
2022-08-05T03:32:37.912Z,21.92
2022-08-05T03:35:09.365Z,21.79
2022-08-05T03:37:45.855Z,21.75
2022-08-05T03:40:24.180Z,21.64
2022-08-05T03:43:01.251Z,21.56
2022-08-05T03:45:29.744Z,21.66
2022-08-05T03:48:22.705Z,21.63
2022-08-05T03:50:59.192Z,21.68
2022-08-05T03:56:04.906Z,21.80
2022-08-05T03:56:49.970Z,21.99
2022-08-05T03:59:24.826Z,21.94
2022-08-05T04:01:58.890Z,21.93
2022-08-05T04:04:29.305Z,22.05
2022-08-05T04:07:00.252Z,22.25
2022-08-05T04:09:30.995Z,22.83
2022-08-05T04:12:05.169Z,23.62
2022-08-05T04:14:52.094Z,24.31
2022-08-05T04:17:20.299Z,24.66
2022-08-05T04:19:54.368Z,24.73
2022-08-05T04:22:26.687Z,25.26
2022-08-05T04:24:54.791Z,25.74
2022-08-05T04:27:41.943Z,25.61
2022-08-05T04:30:12.592Z,25.52
2022-08-05T04:32:42.437Z,25.17
2022-08-05T04:35:17.346Z,24.62
2022-08-05T04:38:02.127Z,24.53
2022-08-05T04:40:35.885Z,24.85
2022-08-05T04:43:06.192Z,24.81
2022-08-05T04:45:48.941Z,25.02
2022-08-05T04:48:27.543Z,25.06
2022-08-05T04:51:02.862Z,25.26
2022-08-05T04:53:39.844Z,25.71
2022-08-05T04:56:33.214Z,26.68
2022-08-05T04:58:57.043Z,27.46
2022-08-05T05:02:08.386Z,28.04
2022-08-05T05:04:13.334Z,28.16
2022-08-05T05:06:44.866Z,28.41
2022-08-05T05:09:18.635Z,27.86
2022-08-05T05:11:53.253Z,27.95
2022-08-05T05:14:27.848Z,27.74
2022-08-05T05:17:00.501Z,28.03
2022-08-05T05:19:37.249Z,28.34
2022-08-05T05:22:24.707Z,29.53
2022-08-05T05:24:59.890Z,28.97
2022-08-05T05:27:44.434Z,29.26
2022-08-05T05:30:15.589Z,29.46
2022-08-05T05:32:56.867Z,30.07
2022-08-05T05:35:29.115Z,30.26
2022-08-05T05:38:05.514Z,30.50
2022-08-05T05:40:35.537Z,31.24
2022-08-05T05:43:04.658Z,31.08
2022-08-05T05:45:36.895Z,30.55
2022-08-05T05:48:16.346Z,31.44
2022-08-05T05:50:44.666Z,31.47
2022-08-05T05:53:21.473Z,31.84
2022-08-05T05:56:00.685Z,32.22
2022-08-05T05:58:32.245Z,32.34
2022-08-05T06:01:12.277Z,32.92
2022-08-05T06:04:00.684Z,32.82
2022-08-05T06:06:30.817Z,33.03
2022-08-05T06:08:59.600Z,33.28
2022-08-05T06:11:29.232Z,33.95
2022-08-05T06:13:57.940Z,33.95
2022-08-05T06:16:36.874Z,34.21
2022-08-05T06:19:07.854Z,34.70
2022-08-05T06:21:38.776Z,34.28
2022-08-05T06:24:12.212Z,34.76
2022-08-05T06:26:51.464Z,35.04
2022-08-05T06:29:43.225Z,34.83
2022-08-05T06:32:26.411Z,34.75
2022-08-05T06:34:58.681Z,35.23
2022-08-05T06:37:56.526Z,35.02
2022-08-05T06:40:18.213Z,35.38
2022-08-05T06:42:52.076Z,35.03
2022-08-05T06:45:44.649Z,35.01
2022-08-05T06:48:36.959Z,35.00
2022-08-05T06:50:58.693Z,35.43
2022-08-05T06:53:29.331Z,35.49
2022-08-05T06:55:59.361Z,35.34
2022-08-05T06:58:35.105Z,35.14
2022-08-05T07:01:07.161Z,35.33
2022-08-05T07:03:36.010Z,35.36
2022-08-05T07:06:14.144Z,34.87
2022-08-05T07:08:47.892Z,33.74
2022-08-05T07:11:22.235Z,32.93
2022-08-05T07:14:20.153Z,32.60
2022-08-05T07:17:59.723Z,32.30
2022-08-05T07:20:31.698Z,32.27
2022-08-05T07:22:30.047Z,32.27
2022-08-05T07:25:22.561Z,32.08
2022-08-05T07:27:57.421Z,32.05
2022-08-05T07:30:34.435Z,31.88
2022-08-05T07:33:08.818Z,31.84
2022-08-05T07:36:01.693Z,31.92
2022-08-05T07:38:34.439Z,31.84
2022-08-05T07:42:06.863Z,31.65
2022-08-05T07:43:56.599Z,31.65
2022-08-05T07:46:27.697Z,31.51
2022-08-05T07:49:04.339Z,31.68
2022-08-05T07:51:36.740Z,31.69
2022-08-05T07:54:08.554Z,31.76
2022-08-05T07:56:59.951Z,31.66
2022-08-05T07:59:38.109Z,31.73
2022-08-05T08:02:15.809Z,31.71
2022-08-05T08:04:46.888Z,31.65
2022-08-05T08:07:15.679Z,31.63
2022-08-05T08:09:44.300Z,31.49
2022-08-05T08:12:37.350Z,31.38
2022-08-05T08:15:03.642Z,31.52
2022-08-05T08:17:35.315Z,31.54
2022-08-05T08:20:21.167Z,31.61
2022-08-05T08:22:55.803Z,31.56
2022-08-05T08:25:27.092Z,31.52
2022-08-05T08:28:18.402Z,31.69
2022-08-05T08:30:49.948Z,31.62
2022-08-05T08:33:19.811Z,31.60
2022-08-05T08:35:53.929Z,31.56
2022-08-05T08:38:37.767Z,31.58
2022-08-05T08:41:08.680Z,31.63
2022-08-05T08:45:24.390Z,31.62
2022-08-05T08:46:29.045Z,31.54
2022-08-05T08:50:04.021Z,31.57
2022-08-05T08:52:04.013Z,31.79
2022-08-05T08:54:36.730Z,31.86
2022-08-05T08:57:11.615Z,31.90
2022-08-05T08:59:42.057Z,32.03
2022-08-05T09:02:17.844Z,31.98
2022-08-05T12:01:38.175Z,33.92
2022-08-05T12:04:06.869Z,33.85
2022-08-05T12:06:36.955Z,33.92
2022-08-05T12:09:20.243Z,34.13
2022-08-05T12:11:48.804Z,34.27
2022-08-05T12:14:19.069Z,34.23
2022-08-05T12:16:48.966Z,34.22
2022-08-05T12:20:17.024Z,34.18
2022-08-05T12:22:07.895Z,34.17
2022-08-05T12:24:43.722Z,34.25
2022-08-05T12:27:32.446Z,34.17
2022-08-05T12:30:03.534Z,34.19
2022-08-05T12:32:35.371Z,34.20
2022-08-05T12:35:07.804Z,34.34
2022-08-05T12:37:36.736Z,34.38
2022-08-05T12:40:11.318Z,34.12
2022-08-05T12:42:54.700Z,34.27
2022-08-05T12:45:22.876Z,34.23
2022-08-05T12:48:32.285Z,34.01
2022-08-05T12:52:10.950Z,33.87
2022-08-05T12:54:16.477Z,33.81
2022-08-05T12:56:51.047Z,33.98
2022-08-05T12:59:27.682Z,33.99
2022-08-05T13:02:10.848Z,34.23
2022-08-05T13:04:52.238Z,34.40
2022-08-05T13:07:55.826Z,34.44
2022-08-05T13:10:14.628Z,34.50
2022-08-05T13:12:51.333Z,34.46
2022-08-05T13:15:41.736Z,34.43
2022-08-05T13:18:19.867Z,34.40
2022-08-05T13:20:50.415Z,34.42
2022-08-05T13:23:22.899Z,34.33
2022-08-05T13:26:01.119Z,34.19
2022-08-05T13:28:32.074Z,34.03
2022-08-05T13:31:11.129Z,34.18
2022-08-05T13:34:21.627Z,34.41
2022-08-05T13:36:33.403Z,34.55
2022-08-05T13:39:02.711Z,34.51
2022-08-05T13:41:50.680Z,34.46
2022-08-05T13:44:18.788Z,34.38
2022-08-05T13:47:08.798Z,34.32
2022-08-05T13:49:35.594Z,34.33
2022-08-05T13:52:12.834Z,34.37
2022-08-05T13:54:41.573Z,34.38
2022-08-05T13:57:10.371Z,34.39
2022-08-05T13:59:57.258Z,34.35
2022-08-05T14:02:29.669Z,34.25
2022-08-05T14:05:15.472Z,34.16
2022-08-05T14:08:01.223Z,33.96
2022-08-05T14:10:35.537Z,34.06
2022-08-05T14:13:05.909Z,34.05
2022-08-05T14:16:07.706Z,34.20
2022-08-05T14:18:24.015Z,34.27
2022-08-05T14:20:54.607Z,34.20
2022-08-05T14:23:26.432Z,34.11
2022-08-05T14:25:58.629Z,34.23
2022-08-05T14:28:28.717Z,34.20
2022-08-05T14:30:57.141Z,34.25
2022-08-05T14:33:25.306Z,34.39
2022-08-05T14:35:54.057Z,34.34
2022-08-05T14:38:33.000Z,34.34
2022-08-05T14:41:07.679Z,34.34
2022-08-05T14:44:02.194Z,34.30
2022-08-05T14:46:28.291Z,34.24
2022-08-05T14:48:59.427Z,34.18
2022-08-05T14:51:30.766Z,34.21
2022-08-05T14:54:26.870Z,34.20
2022-08-05T14:56:49.580Z,34.02
2022-08-05T14:59:22.066Z,34.04
2022-08-05T15:01:50.415Z,34.05
2022-08-05T15:04:20.451Z,34.09
2022-08-05T15:06:50.276Z,34.11
2022-08-05T15:09:51.430Z,33.98
2022-08-05T15:12:16.335Z,34.01
2022-08-05T15:14:50.264Z,34.07
2022-08-05T15:17:44.709Z,34.11
2022-08-05T15:20:19.023Z,34.09
2022-08-05T15:22:54.953Z,34.16
2022-08-05T15:25:41.226Z,34.11
2022-08-05T15:28:16.138Z,34.03
2022-08-05T15:30:45.803Z,33.90
2022-08-05T15:34:04.111Z,33.83
2022-08-05T15:36:04.647Z,33.77
2022-08-05T15:38:40.931Z,33.63
2022-08-05T15:41:23.949Z,33.48
2022-08-05T15:43:54.625Z,33.49
2022-08-05T15:46:24.108Z,33.47
2022-08-05T15:49:01.062Z,33.66
2022-08-05T15:52:09.909Z,33.85
2022-08-05T15:54:34.349Z,33.95
2022-08-05T15:57:04.176Z,33.79
2022-08-05T15:59:38.145Z,33.69
2022-08-05T16:02:19.576Z,33.72
2022-08-05T16:04:53.805Z,33.69
2022-08-05T16:07:22.765Z,33.81
2022-08-05T16:09:51.788Z,33.78
2022-08-05T16:12:23.866Z,33.78
2022-08-05T16:14:52.185Z,33.74
2022-08-05T16:17:20.408Z,33.76
2022-08-05T16:20:04.552Z,33.80
2022-08-05T16:22:34.750Z,33.68
2022-08-05T16:25:08.009Z,33.64
2022-08-05T16:28:00.832Z,33.65
2022-08-05T16:30:30.737Z,33.61
2022-08-05T16:33:00.865Z,33.59
2022-08-05T16:35:30.827Z,33.57
2022-08-05T16:38:14.956Z,33.49
2022-08-05T16:40:55.049Z,33.52
2022-08-05T16:43:32.208Z,33.58
2022-08-05T16:46:03.790Z,33.58
2022-08-05T16:48:37.827Z,33.66
2022-08-05T16:51:42.593Z,33.56
2022-08-05T16:54:27.489Z,33.56
2022-08-05T16:57:39.921Z,33.35
2022-08-05T17:00:34.010Z,33.46
2022-08-05T17:03:02.884Z,33.31
2022-08-05T17:05:32.398Z,33.23
2022-08-05T17:08:05.724Z,33.19
2022-08-05T17:10:36.218Z,33.18
2022-08-05T17:13:05.706Z,33.08
2022-08-05T17:15:47.847Z,33.11
2022-08-05T17:18:17.211Z,33.03
2022-08-05T17:20:47.084Z,32.98
2022-08-05T17:24:03.383Z,32.92
2022-08-05T17:26:03.224Z,32.84
2022-08-05T17:28:31.333Z,32.75
2022-08-05T17:31:00.770Z,32.64
2022-08-05T17:33:39.034Z,32.59
2022-08-05T17:36:33.748Z,32.49
2022-08-05T17:39:03.948Z,32.42
2022-08-05T17:42:19.136Z,32.37
2022-08-05T17:44:26.747Z,32.27
2022-08-05T17:47:02.075Z,32.23
2022-08-05T17:50:00.002Z,32.21
2022-08-05T17:52:18.706Z,32.18
2022-08-05T17:54:46.775Z,32.17
2022-08-05T17:57:15.567Z,32.08
2022-08-05T17:59:43.910Z,32.01
2022-08-05T18:02:17.505Z,31.91
2022-08-05T18:04:53.216Z,31.86
2022-08-05T18:07:21.648Z,31.77
2022-08-05T18:09:59.709Z,31.73
2022-08-05T18:12:29.149Z,31.65
2022-08-05T18:14:57.264Z,31.52
2022-08-05T18:18:01.359Z,31.45
2022-08-05T18:20:16.473Z,31.38
2022-08-05T18:22:46.121Z,31.33
2022-08-05T18:25:22.446Z,31.28
2022-08-05T18:27:53.161Z,31.22
2022-08-05T18:30:21.696Z,31.21
2022-08-05T18:33:00.931Z,31.10
2022-08-05T18:35:49.654Z,31.05
2022-08-05T18:38:19.529Z,31.01
2022-08-05T18:41:56.736Z,30.95
2022-08-05T18:43:43.266Z,30.88
2022-08-05T18:46:19.502Z,30.86
2022-08-05T18:48:52.100Z,30.78
2022-08-05T18:52:06.402Z,30.70
2022-08-05T18:54:28.395Z,30.63
2022-08-05T18:57:00.923Z,30.58
2022-08-05T18:59:43.778Z,30.52
2022-08-05T19:02:28.573Z,30.47
2022-08-05T19:05:02.801Z,30.42
2022-08-05T19:07:50.098Z,30.40
2022-08-05T19:10:28.542Z,30.37
2022-08-05T19:12:57.209Z,30.41
2022-08-05T19:15:59.271Z,30.49
2022-08-05T19:18:22.293Z,30.47
2022-08-05T19:20:53.152Z,30.34
2022-08-05T19:24:04.059Z,30.23
2022-08-05T19:26:11.390Z,30.16
2022-08-05T19:28:42.203Z,30.18
2022-08-05T19:31:12.944Z,30.16
2022-08-05T19:33:47.907Z,30.25
2022-08-05T19:36:25.687Z,30.01
2022-08-05T19:38:54.872Z,29.87
2022-08-05T19:41:34.702Z,29.69
2022-08-05T19:44:15.399Z,29.72
2022-08-05T19:46:44.136Z,29.60
2022-08-05T19:49:16.901Z,29.59
2022-08-05T19:52:08.606Z,29.45
2022-08-05T19:54:37.028Z,29.57
2022-08-05T19:57:09.326Z,29.58
2022-08-05T19:59:59.409Z,29.50
2022-08-05T20:02:30.324Z,29.51
2022-08-05T20:05:00.151Z,29.52
2022-08-05T20:07:46.514Z,29.43
2022-08-05T20:10:19.386Z,29.26
2022-08-05T20:12:50.519Z,29.25
2022-08-05T20:15:23.202Z,29.23
2022-08-05T20:18:10.671Z,28.95
2022-08-05T20:20:57.555Z,28.90
2022-08-05T20:23:39.181Z,28.74
2022-08-05T20:26:19.177Z,28.65
2022-08-05T20:28:50.830Z,28.54
2022-08-05T20:31:21.770Z,28.58
2022-08-05T20:33:56.776Z,28.41
2022-08-05T20:36:25.934Z,28.34
2022-08-05T20:38:58.009Z,28.34
2022-08-05T20:41:44.160Z,28.27
2022-08-05T20:44:18.721Z,28.21
2022-08-05T20:46:57.202Z,28.16
2022-08-05T20:49:26.115Z,28.04
2022-08-05T20:51:54.539Z,27.98
2022-08-05T20:54:25.324Z,27.92
2022-08-05T20:56:53.458Z,27.90
2022-08-05T20:59:26.763Z,27.87
2022-08-05T21:01:57.908Z,27.84
2022-08-05T21:04:27.107Z,27.86
2022-08-05T21:06:55.888Z,27.84
2022-08-05T21:09:25.470Z,27.81
2022-08-05T21:12:09.093Z,27.81
2022-08-05T21:14:39.662Z,27.79
2022-08-05T21:17:07.815Z,27.76
2022-08-05T21:19:47.207Z,27.71
2022-08-05T21:22:21.873Z,27.71
2022-08-05T21:24:54.328Z,27.75
2022-08-05T21:27:24.643Z,27.71
2022-08-05T21:29:53.977Z,27.60
2022-08-05T21:32:24.665Z,27.52
2022-08-05T21:35:18.148Z,27.50
2022-08-05T21:37:47.191Z,27.50
2022-08-05T21:40:23.697Z,27.39
2022-08-05T21:42:53.490Z,27.32
2022-08-05T21:45:51.572Z,27.28
2022-08-05T21:48:10.681Z,27.25
2022-08-05T21:50:42.239Z,27.22
2022-08-05T21:53:24.844Z,27.16
2022-08-05T21:56:05.243Z,27.10
2022-08-05T21:58:42.218Z,27.10
2022-08-05T22:01:11.125Z,27.03
2022-08-05T22:03:53.566Z,26.96
2022-08-05T22:06:35.309Z,26.93
2022-08-05T22:09:14.850Z,27.01
2022-08-05T22:11:46.803Z,27.01
2022-08-05T22:14:33.349Z,26.97
2022-08-05T22:17:05.115Z,27.00
2022-08-05T22:20:00.767Z,26.90
2022-08-05T22:22:26.847Z,26.86
2022-08-05T22:25:18.049Z,26.81
2022-08-05T22:28:09.953Z,26.86
2022-08-05T22:30:55.286Z,26.87
2022-08-05T22:33:57.880Z,26.61
2022-08-05T22:36:15.220Z,26.73
2022-08-05T22:38:48.514Z,26.63
2022-08-05T22:42:04.894Z,26.50
2022-08-05T22:44:08.316Z,26.42
2022-08-05T22:46:39.757Z,26.33
2022-08-05T22:49:12.117Z,26.17
2022-08-05T22:52:04.874Z,26.12
2022-08-05T22:54:36.371Z,26.04
2022-08-05T22:57:05.630Z,26.08
2022-08-05T22:59:45.803Z,26.00
2022-08-05T23:02:18.312Z,25.81
2022-08-05T23:04:52.125Z,25.67
2022-08-05T23:07:22.342Z,25.49
2022-08-05T23:09:57.166Z,25.49
2022-08-05T23:12:32.634Z,25.46
2022-08-05T23:15:03.956Z,25.42
2022-08-05T23:18:01.671Z,25.41
2022-08-05T23:20:25.794Z,25.41
2022-08-05T23:22:55.734Z,25.47
2022-08-05T23:25:54.948Z,25.31
2022-08-05T23:28:13.064Z,25.28
2022-08-05T23:30:52.822Z,25.20
2022-08-05T23:33:26.276Z,25.13
2022-08-05T23:36:11.136Z,25.07
2022-08-05T23:38:43.673Z,25.21
2022-08-05T23:41:12.357Z,25.35
2022-08-05T23:44:05.821Z,25.35
2022-08-05T23:46:30.957Z,25.40
2022-08-05T23:48:59.608Z,25.42
2022-08-05T23:51:54.328Z,25.27
2022-08-05T23:54:25.220Z,25.21
2022-08-05T23:56:55.602Z,25.33
